Hernandez, New Mexico
Current Conditions -  °F | °C
As of 12:15 AM on Saturday 29 Nov 2014 (Local Time) from KLAM Reporting Station
Clear Clear  
Wind Chill: 40°   Ceiling: Unl
Heat Index: 43°   Visibility: 10mi
Dew Point: 11°   Wind: 5mph
Humidity: 28%   Direction: 180°S
Pressure: 30.09"   Gusts: NA
Location:  36.06°N, 106.12°W
Report Text: KLAM 290715Z AUTO 18004KT 10SM CLR 06/M12 A3009 RMK AO2 T00601116
Loading
Personal Weather Stations






























Interactive Weather Map New forecast layout! Learn more

10-Day Weather Forecast

Advertisements
Track Severe Weather on mobile